sensor_id;sensor_type;location;lat;lon;timestamp;P1;durP1;ratioP1;P2;durP2;ratioP2
14330;SDS011;7249;49.376;11.080;2024-01-15T00:00:17;21.40;;;8.60;;
14330;SDS011;7249;49.376;11.080;2024-01-15T00:02:43;16.40;;;8.10;;
14330;SDS011;7249;49.376;11.080;2024-01-15T00:05:08;16.60;;;7.00;;
14330;SDS011;7249;49.376;11.080;2024-01-15T00:07:35;14.00;;;7.40;;
14330;SDS011;7249;49.376;11.080;2024-01-15T00:10:00;17.23;;;8.00;;
14330;SDS011;7249;49.376;11.080;2024-01-15T00:12:26;19.90;;;8.17;;
14330;SDS011;7249;49.376;11.080;2024-01-15T00:14:52;12.97;;;6.97;;
14330;SDS011;7249;49.376;11.080;2024-01-15T00:17:18;14.57;;;7.53;;
14330;SDS011;7249;49.376;11.080;2024-01-15T00:19:43;16.17;;;6.83;;
14330;SDS011;7249;49.376;11.080;2024-01-15T00:22:09;21.53;;;9.00;;
14330;SDS011;7249;49.376;11.080;2024-01-15T00:24:35;16.70;;;7.23;;
14330;SDS011;7249;49.376;11.080;2024-01-15T00:27:00;27.07;;;8.93;;
14330;SDS011;7249;49.376;11.080;2024-01-15T00:29:26;18.87;;;6.50;;
14330;SDS011;7249;49.376;11.080;2024-01-15T00:31:51;14.30;;;8.37;;
14330;SDS011;7249;49.376;11.080;2024-01-15T00:34:17;16.13;;;6.70;;
14330;SDS011;7249;49.376;11.080;2024-01-15T00:36:42;19.27;;;7.20;;
14330;SDS011;7249;49.376;11.080;2024-01-15T00:39:08;14.93;;;6.30;;
14330;SDS011;7249;49.376;11.080;2024-01-15T00:41:35;14.33;;;6.83;;
14330;SDS011;7249;49.376;11.080;2024-01-15T00:44:01;16.63;;;7.33;;
14330;SDS011;7249;49.376;11.080;2024-01-15T00:46:28;18.93;;;7.70;;
14330;SDS011;7249;49.376;11.080;2024-01-15T00:48:53;19.47;;;7.87;;
14330;SDS011;7249;49.376;11.080;2024-01-15T00:51:19;14.33;;;5.83;;
14330;SDS011;7249;49.376;11.080;2024-01-15T00:53:45;14.20;;;8.50;;
14330;SDS011;7249;49.376;11.080;2024-01-15T00:56:10;21.67;;;7.90;;
14330;SDS011;7249;49.376;11.080;2024-01-15T00:58:36;16.20;;;6.23;;
14330;SDS011;7249;49.376;11.080;2024-01-15T01:01:02;18.23;;;7.43;;
14330;SDS011;7249;49.376;11.080;2024-01-15T01:03:27;15.33;;;6.20;;
14330;SDS011;7249;49.376;11.080;2024-01-15T01:05:53;12.50;;;6.93;;
14330;SDS011;7249;49.376;11.080;2024-01-15T01:08:18;20.47;;;7.07;;
14330;SDS011;7249;49.376;11.080;2024-01-15T01:10:44;15.80;;;6.07;;
14330;SDS011;7249;49.376;11.080;2024-01-15T01:13:10;21.30;;;6.97;;
14330;SDS011;7249;49.376;11.080;2024-01-15T01:15:35;14.37;;;6.47;;
14330;SDS011;7249;49.376;11.080;2024-01-15T01:18:01;20.60;;;6.90;;
14330;SDS011;7249;49.376;11.080;2024-01-15T01:20:27;13.67;;;6.90;;
14330;SDS011;7249;49.376;11.080;2024-01-15T01:22:53;13.60;;;5.87;;
14330;SDS011;7249;49.376;11.080;2024-01-15T01:25:18;17.20;;;5.53;;
14330;SDS011;7249;49.376;11.080;2024-01-15T01:27:44;16.50;;;5.63;;
14330;SDS011;7249;49.376;11.080;2024-01-15T01:30:09;19.00;;;6.90;;
14330;SDS011;7249;49.376;11.080;2024-01-15T01:32:35;20.00;;;7.70;;
14330;SDS011;7249;49.376;11.080;2024-01-15T01:35:01;17.30;;;7.90;;
14330;SDS011;7249;49.376;11.080;2024-01-15T01:37:26;17.53;;;6.93;;
14330;SDS011;7249;49.376;11.080;2024-01-15T01:39:52;14.73;;;6.03;;
14330;SDS011;7249;49.376;11.080;2024-01-15T01:42:18;19.63;;;6.93;;
14330;SDS011;7249;49.376;11.080;2024-01-15T01:44:43;15.03;;;5.30;;
14330;SDS011;7249;49.376;11.080;2024-01-15T01:47:09;13.83;;;6.33;;
14330;SDS011;7249;49.376;11.080;2024-01-15T01:49:35;15.23;;;6.17;;
14330;SDS011;7249;49.376;11.080;2024-01-15T01:52:02;11.40;;;5.17;;
14330;SDS011;7249;49.376;11.080;2024-01-15T01:54:29;10.73;;;5.60;;
14330;SDS011;7249;49.376;11.080;2024-01-15T01:56:57;21.47;;;7.07;;
14330;SDS011;7249;49.376;11.080;2024-01-15T01:59:23;12.27;;;5.03;;
14330;SDS011;7249;49.376;11.080;2024-01-15T02:01:52;17.30;;;5.97;;
14330;SDS011;7249;49.376;11.080;2024-01-15T02:04:19;12.50;;;5.70;;
14330;SDS011;7249;49.376;11.080;2024-01-15T02:06:46;15.80;;;5.27;;
14330;SDS011;7249;49.376;11.080;2024-01-15T02:09:13;18.03;;;6.13;;
14330;SDS011;7249;49.376;11.080;2024-01-15T02:11:40;15.70;;;5.77;;
14330;SDS011;7249;49.376;11.080;2024-01-15T02:14:06;15.80;;;5.30;;
14330;SDS011;7249;49.376;11.080;2024-01-15T02:16:33;13.07;;;6.30;;
14330;SDS011;7249;49.376;11.080;2024-01-15T02:18:59;20.80;;;6.03;;
14330;SDS011;7249;49.376;11.080;2024-01-15T02:21:24;12.63;;;6.13;;
14330;SDS011;7249;49.376;11.080;2024-01-15T02:23:53;9.17;;;5.77;;
14330;SDS011;7249;49.376;11.080;2024-01-15T02:26:19;10.53;;;5.03;;
14330;SDS011;7249;49.376;11.080;2024-01-15T02:28:45;9.20;;;3.93;;
14330;SDS011;7249;49.376;11.080;2024-01-15T02:31:11;18.63;;;5.90;;
14330;SDS011;7249;49.376;11.080;2024-01-15T02:33:37;11.93;;;4.70;;
14330;SDS011;7249;49.376;11.080;2024-01-15T02:36:02;13.43;;;6.13;;
14330;SDS011;7249;49.376;11.080;2024-01-15T02:38:28;12.20;;;6.73;;
14330;SDS011;7249;49.376;11.080;2024-01-15T02:40:54;12.60;;;6.37;;
14330;SDS011;7249;49.376;11.080;2024-01-15T02:43:19;13.10;;;4.77;;
14330;SDS011;7249;49.376;11.080;2024-01-15T02:45:45;10.93;;;4.83;;
14330;SDS011;7249;49.376;11.080;2024-01-15T02:48:11;13.17;;;5.73;;
14330;SDS011;7249;49.376;11.080;2024-01-15T02:50:37;13.27;;;5.93;;
14330;SDS011;7249;49.376;11.080;2024-01-15T02:53:03;13.43;;;5.10;;
14330;SDS011;7249;49.376;11.080;2024-01-15T02:55:29;14.80;;;5.70;;
14330;SDS011;7249;49.376;11.080;2024-01-15T02:57:54;15.60;;;5.87;;
14330;SDS011;7249;49.376;11.080;2024-01-15T03:00:20;13.43;;;5.10;;
14330;SDS011;7249;49.376;11.080;2024-01-15T03:02:45;16.60;;;4.97;;
14330;SDS011;7249;49.376;11.080;2024-01-15T03:05:11;10.00;;;5.60;;
14330;SDS011;7249;49.376;11.080;2024-01-15T03:07:37;15.10;;;5.50;;
14330;SDS011;7249;49.376;11.080;2024-01-15T03:10:03;12.07;;;4.73;;
14330;SDS011;7249;49.376;11.080;2024-01-15T03:12:29;12.83;;;6.23;;
14330;SDS011;7249;49.376;11.080;2024-01-15T03:14:55;12.13;;;6.07;;
14330;SDS011;7249;49.376;11.080;2024-01-15T03:17:20;8.67;;;4.50;;
14330;SDS011;7249;49.376;11.080;2024-01-15T03:19:46;7.40;;;3.60;;
14330;SDS011;7249;49.376;11.080;2024-01-15T03:22:12;11.43;;;4.30;;
14330;SDS011;7249;49.376;11.080;2024-01-15T03:24:37;10.40;;;6.03;;
14330;SDS011;7249;49.376;11.080;2024-01-15T03:27:03;14.47;;;5.33;;
14330;SDS011;7249;49.376;11.080;2024-01-15T03:29:29;9.60;;;4.03;;
14330;SDS011;7249;49.376;11.080;2024-01-15T03:31:54;14.27;;;5.27;;
14330;SDS011;7249;49.376;11.080;2024-01-15T03:34:20;7.50;;;4.43;;
14330;SDS011;7249;49.376;11.080;2024-01-15T03:36:48;11.07;;;5.50;;
14330;SDS011;7249;49.376;11.080;2024-01-15T03:39:14;10.77;;;4.73;;
14330;SDS011;7249;49.376;11.080;2024-01-15T03:41:40;10.40;;;4.40;;
14330;SDS011;7249;49.376;11.080;2024-01-15T03:44:05;10.17;;;4.63;;
14330;SDS011;7249;49.376;11.080;2024-01-15T03:46:31;6.00;;;3.37;;
14330;SDS011;7249;49.376;11.080;2024-01-15T03:48:56;9.53;;;4.87;;
14330;SDS011;7249;49.376;11.080;2024-01-15T03:51:22;7.43;;;4.37;;
14330;SDS011;7249;49.376;11.080;2024-01-15T03:53:48;8.67;;;3.87;;
14330;SDS011;7249;49.376;11.080;2024-01-15T03:56:14;8.70;;;5.07;;
14330;SDS011;7249;49.376;11.080;2024-01-15T03:58:39;8.23;;;4.03;;
14330;SDS011;7249;49.376;11.080;2024-01-15T04:01:11;8.43;;;4.50;;
14330;SDS011;7249;49.376;11.080;2024-01-15T04:03:36;7.87;;;4.37;;
14330;SDS011;7249;49.376;11.080;2024-01-15T04:06:03;9.97;;;4.93;;
14330;SDS011;7249;49.376;11.080;2024-01-15T04:08:29;12.53;;;4.00;;
14330;SDS011;7249;49.376;11.080;2024-01-15T04:10:55;11.37;;;4.83;;
14330;SDS011;7249;49.376;11.080;2024-01-15T04:13:20;7.57;;;4.47;;
14330;SDS011;7249;49.376;11.080;2024-01-15T04:15:46;11.83;;;5.13;;
14330;SDS011;7249;49.376;11.080;2024-01-15T04:18:12;10.17;;;4.33;;
14330;SDS011;7249;49.376;11.080;2024-01-15T04:20:38;10.30;;;4.60;;
14330;SDS011;7249;49.376;11.080;2024-01-15T04:23:03;11.67;;;5.23;;
14330;SDS011;7249;49.376;11.080;2024-01-15T04:25:29;11.97;;;3.77;;
14330;SDS011;7249;49.376;11.080;2024-01-15T04:27:55;9.93;;;3.80;;
14330;SDS011;7249;49.376;11.080;2024-01-15T04:30:21;9.97;;;4.77;;
14330;SDS011;7249;49.376;11.080;2024-01-15T04:32:46;7.40;;;4.40;;
14330;SDS011;7249;49.376;11.080;2024-01-15T04:35:12;10.27;;;4.57;;
14330;SDS011;7249;49.376;11.080;2024-01-15T04:37:37;8.37;;;3.87;;
14330;SDS011;7249;49.376;11.080;2024-01-15T04:40:04;11.03;;;4.40;;
14330;SDS011;7249;49.376;11.080;2024-01-15T04:42:30;8.23;;;4.17;;
14330;SDS011;7249;49.376;11.080;2024-01-15T04:44:56;11.10;;;4.90;;
14330;SDS011;7249;49.376;11.080;2024-01-15T04:47:21;13.27;;;4.13;;
14330;SDS011;7249;49.376;11.080;2024-01-15T04:49:47;7.70;;;4.20;;
14330;SDS011;7249;49.376;11.080;2024-01-15T04:52:14;12.73;;;4.87;;
14330;SDS011;7249;49.376;11.080;2024-01-15T04:54:39;7.37;;;3.90;;
14330;SDS011;7249;49.376;11.080;2024-01-15T04:57:05;7.17;;;3.53;;
14330;SDS011;7249;49.376;11.080;2024-01-15T04:59:31;13.00;;;4.23;;
14330;SDS011;7249;49.376;11.080;2024-01-15T05:01:56;13.80;;;5.13;;
14330;SDS011;7249;49.376;11.080;2024-01-15T05:04:22;9.17;;;4.77;;
14330;SDS011;7249;49.376;11.080;2024-01-15T05:06:49;9.33;;;3.03;;
14330;SDS011;7249;49.376;11.080;2024-01-15T05:09:15;8.23;;;3.97;;
14330;SDS011;7249;49.376;11.080;2024-01-15T05:11:41;11.47;;;4.23;;
14330;SDS011;7249;49.376;11.080;2024-01-15T05:14:06;9.53;;;4.47;;
14330;SDS011;7249;49.376;11.080;2024-01-15T05:16:32;10.07;;;4.40;;
14330;SDS011;7249;49.376;11.080;2024-01-15T05:18:57;11.10;;;4.37;;
14330;SDS011;7249;49.376;11.080;2024-01-15T05:21:23;14.57;;;6.47;;
14330;SDS011;7249;49.376;11.080;2024-01-15T05:23:48;9.67;;;4.47;;
14330;SDS011;7249;49.376;11.080;2024-01-15T05:26:14;10.83;;;4.77;;
14330;SDS011;7249;49.376;11.080;2024-01-15T05:28:43;11.87;;;4.57;;
14330;SDS011;7249;49.376;11.080;2024-01-15T05:31:09;10.20;;;4.60;;
14330;SDS011;7249;49.376;11.080;2024-01-15T05:33:35;8.87;;;4.43;;
14330;SDS011;7249;49.376;11.080;2024-01-15T05:36:01;6.97;;;3.67;;
14330;SDS011;7249;49.376;11.080;2024-01-15T05:38:27;14.00;;;3.63;;
14330;SDS011;7249;49.376;11.080;2024-01-15T05:40:53;8.63;;;4.90;;
14330;SDS011;7249;49.376;11.080;2024-01-15T05:43:18;5.47;;;3.83;;
14330;SDS011;7249;49.376;11.080;2024-01-15T05:45:44;7.80;;;3.90;;
14330;SDS011;7249;49.376;11.080;2024-01-15T05:48:11;5.80;;;3.67;;
14330;SDS011;7249;49.376;11.080;2024-01-15T05:50:37;7.47;;;4.07;;
14330;SDS011;7249;49.376;11.080;2024-01-15T05:53:03;9.23;;;4.80;;
14330;SDS011;7249;49.376;11.080;2024-01-15T05:55:29;11.40;;;4.27;;
14330;SDS011;7249;49.376;11.080;2024-01-15T05:57:54;7.77;;;5.00;;
14330;SDS011;7249;49.376;11.080;2024-01-15T06:00:20;10.67;;;5.47;;
14330;SDS011;7249;49.376;11.080;2024-01-15T06:02:45;10.43;;;4.97;;
14330;SDS011;7249;49.376;11.080;2024-01-15T06:05:11;7.13;;;4.40;;
14330;SDS011;7249;49.376;11.080;2024-01-15T06:07:37;11.93;;;4.83;;
14330;SDS011;7249;49.376;11.080;2024-01-15T06:10:03;11.67;;;4.43;;
14330;SDS011;7249;49.376;11.080;2024-01-15T06:12:29;12.43;;;3.80;;
14330;SDS011;7249;49.376;11.080;2024-01-15T06:14:56;6.13;;;4.00;;
14330;SDS011;7249;49.376;11.080;2024-01-15T06:17:21;9.83;;;4.03;;
14330;SDS011;7249;49.376;11.080;2024-01-15T06:19:47;14.43;;;5.43;;
14330;SDS011;7249;49.376;11.080;2024-01-15T06:22:12;13.63;;;4.83;;
14330;SDS011;7249;49.376;11.080;2024-01-15T06:24:38;6.27;;;3.70;;
14330;SDS011;7249;49.376;11.080;2024-01-15T06:27:04;11.70;;;5.23;;
14330;SDS011;7249;49.376;11.080;2024-01-15T06:29:29;7.53;;;3.17;;
14330;SDS011;7249;49.376;11.080;2024-01-15T06:31:55;11.27;;;4.27;;
14330;SDS011;7249;49.376;11.080;2024-01-15T06:34:20;11.80;;;4.83;;
14330;SDS011;7249;49.376;11.080;2024-01-15T06:36:46;9.33;;;4.50;;
14330;SDS011;7249;49.376;11.080;2024-01-15T06:39:12;5.60;;;2.90;;
14330;SDS011;7249;49.376;11.080;2024-01-15T06:41:37;14.77;;;4.97;;
14330;SDS011;7249;49.376;11.080;2024-01-15T06:44:09;11.13;;;4.27;;
14330;SDS011;7249;49.376;11.080;2024-01-15T06:46:36;10.47;;;3.27;;
14330;SDS011;7249;49.376;11.080;2024-01-15T06:49:01;8.47;;;3.93;;
14330;SDS011;7249;49.376;11.080;2024-01-15T06:51:27;15.47;;;5.07;;
14330;SDS011;7249;49.376;11.080;2024-01-15T06:53:53;9.50;;;3.80;;
14330;SDS011;7249;49.376;11.080;2024-01-15T06:56:19;6.47;;;3.27;;
14330;SDS011;7249;49.376;11.080;2024-01-15T06:58:45;7.80;;;3.67;;
14330;SDS011;7249;49.376;11.080;2024-01-15T07:01:10;7.60;;;4.23;;
14330;SDS011;7249;49.376;11.080;2024-01-15T07:03:36;7.07;;;3.33;;
14330;SDS011;7249;49.376;11.080;2024-01-15T07:06:02;7.67;;;4.23;;
14330;SDS011;7249;49.376;11.080;2024-01-15T07:08:28;7.37;;;3.23;;
14330;SDS011;7249;49.376;11.080;2024-01-15T07:10:53;10.30;;;4.40;;
14330;SDS011;7249;49.376;11.080;2024-01-15T07:13:19;7.87;;;3.87;;
14330;SDS011;7249;49.376;11.080;2024-01-15T07:15:44;11.83;;;4.53;;
14330;SDS011;7249;49.376;11.080;2024-01-15T07:18:10;11.23;;;4.60;;
14330;SDS011;7249;49.376;11.080;2024-01-15T07:20:36;8.97;;;3.87;;
14330;SDS011;7249;49.376;11.080;2024-01-15T07:23:01;8.60;;;3.33;;
14330;SDS011;7249;49.376;11.080;2024-01-15T07:25:28;7.93;;;4.17;;
14330;SDS011;7249;49.376;11.080;2024-01-15T07:27:53;11.77;;;4.23;;
14330;SDS011;7249;49.376;11.080;2024-01-15T07:30:19;5.53;;;3.93;;
14330;SDS011;7249;49.376;11.080;2024-01-15T07:32:46;7.60;;;4.30;;
14330;SDS011;7249;49.376;11.080;2024-01-15T07:35:13;5.73;;;3.03;;
14330;SDS011;7249;49.376;11.080;2024-01-15T07:37:40;9.10;;;4.17;;
14330;SDS011;7249;49.376;11.080;2024-01-15T07:40:05;8.07;;;4.27;;
14330;SDS011;7249;49.376;11.080;2024-01-15T07:42:33;8.77;;;4.30;;
14330;SDS011;7249;49.376;11.080;2024-01-15T07:44:59;10.97;;;4.10;;
14330;SDS011;7249;49.376;11.080;2024-01-15T07:47:25;8.93;;;4.47;;
14330;SDS011;7249;49.376;11.080;2024-01-15T07:49:52;6.80;;;3.70;;
14330;SDS011;7249;49.376;11.080;2024-01-15T07:52:17;5.73;;;3.17;;
14330;SDS011;7249;49.376;11.080;2024-01-15T07:54:43;6.40;;;3.00;;
14330;SDS011;7249;49.376;11.080;2024-01-15T07:57:09;9.03;;;4.40;;
14330;SDS011;7249;49.376;11.080;2024-01-15T07:59:35;9.13;;;3.97;;
14330;SDS011;7249;49.376;11.080;2024-01-15T08:02:01;5.87;;;3.50;;
14330;SDS011;7249;49.376;11.080;2024-01-15T08:04:27;9.17;;;3.87;;
14330;SDS011;7249;49.376;11.080;2024-01-15T08:06:52;5.30;;;3.40;;
14330;SDS011;7249;49.376;11.080;2024-01-15T08:09:18;5.80;;;3.57;;
14330;SDS011;7249;49.376;11.080;2024-01-15T08:11:43;7.93;;;3.60;;
14330;SDS011;7249;49.376;11.080;2024-01-15T08:14:10;6.27;;;3.30;;
14330;SDS011;7249;49.376;11.080;2024-01-15T08:16:37;6.83;;;3.30;;
14330;SDS011;7249;49.376;11.080;2024-01-15T08:19:02;6.83;;;3.47;;
14330;SDS011;7249;49.376;11.080;2024-01-15T08:21:28;7.17;;;3.07;;
14330;SDS011;7249;49.376;11.080;2024-01-15T08:23:56;6.73;;;3.93;;
14330;SDS011;7249;49.376;11.080;2024-01-15T08:26:22;6.67;;;3.83;;
14330;SDS011;7249;49.376;11.080;2024-01-15T08:28:47;7.00;;;3.47;;
14330;SDS011;7249;49.376;11.080;2024-01-15T08:31:13;7.47;;;3.90;;
14330;SDS011;7249;49.376;11.080;2024-01-15T08:33:39;6.53;;;3.43;;
14330;SDS011;7249;49.376;11.080;2024-01-15T08:36:04;6.60;;;3.93;;
14330;SDS011;7249;49.376;11.080;2024-01-15T08:38:31;9.37;;;4.63;;
14330;SDS011;7249;49.376;11.080;2024-01-15T08:40:56;6.63;;;3.93;;
14330;SDS011;7249;49.376;11.080;2024-01-15T08:43:24;6.50;;;3.13;;
14330;SDS011;7249;49.376;11.080;2024-01-15T08:45:50;6.67;;;3.00;;
14330;SDS011;7249;49.376;11.080;2024-01-15T08:48:16;6.80;;;3.27;;
14330;SDS011;7249;49.376;11.080;2024-01-15T08:50:42;7.03;;;3.53;;
14330;SDS011;7249;49.376;11.080;2024-01-15T08:53:10;8.37;;;3.77;;
14330;SDS011;7249;49.376;11.080;2024-01-15T08:55:36;6.50;;;3.37;;
14330;SDS011;7249;49.376;11.080;2024-01-15T08:58:02;7.40;;;3.90;;
14330;SDS011;7249;49.376;11.080;2024-01-15T09:00:28;6.77;;;3.40;;
14330;SDS011;7249;49.376;11.080;2024-01-15T09:02:54;6.43;;;3.27;;
14330;SDS011;7249;49.376;11.080;2024-01-15T09:05:21;8.17;;;3.83;;
14330;SDS011;7249;49.376;11.080;2024-01-15T09:07:47;6.00;;;3.03;;
14330;SDS011;7249;49.376;11.080;2024-01-15T09:10:13;5.33;;;2.93;;
14330;SDS011;7249;49.376;11.080;2024-01-15T09:12:38;6.80;;;3.67;;
14330;SDS011;7249;49.376;11.080;2024-01-15T09:15:05;6.97;;;3.50;;
14330;SDS011;7249;49.376;11.080;2024-01-15T09:17:33;6.27;;;3.60;;
14330;SDS011;7249;49.376;11.080;2024-01-15T09:19:59;6.00;;;3.53;;
14330;SDS011;7249;49.376;11.080;2024-01-15T09:22:25;7.97;;;3.80;;
14330;SDS011;7249;49.376;11.080;2024-01-15T09:24:51;6.83;;;3.37;;
14330;SDS011;7249;49.376;11.080;2024-01-15T09:27:16;4.20;;;2.80;;
14330;SDS011;7249;49.376;11.080;2024-01-15T09:29:42;5.07;;;2.80;;
14330;SDS011;7249;49.376;11.080;2024-01-15T09:32:10;4.83;;;3.37;;
14330;SDS011;7249;49.376;11.080;2024-01-15T09:34:36;6.03;;;3.23;;
14330;SDS011;7249;49.376;11.080;2024-01-15T09:37:01;6.33;;;3.47;;
14330;SDS011;7249;49.376;11.080;2024-01-15T09:39:30;3.87;;;2.50;;
14330;SDS011;7249;49.376;11.080;2024-01-15T09:41:57;6.80;;;3.47;;
14330;SDS011;7249;49.376;11.080;2024-01-15T09:44:22;6.63;;;3.23;;
14330;SDS011;7249;49.376;11.080;2024-01-15T09:46:49;5.37;;;3.03;;
14330;SDS011;7249;49.376;11.080;2024-01-15T09:49:18;4.97;;;2.57;;
14330;SDS011;7249;49.376;11.080;2024-01-15T09:51:44;6.87;;;3.33;;
14330;SDS011;7249;49.376;11.080;2024-01-15T09:54:10;4.43;;;2.77;;
14330;SDS011;7249;49.376;11.080;2024-01-15T09:56:38;6.43;;;3.07;;
14330;SDS011;7249;49.376;11.080;2024-01-15T09:59:04;5.67;;;2.77;;
14330;SDS011;7249;49.376;11.080;2024-01-15T10:01:31;4.90;;;2.93;;
14330;SDS011;7249;49.376;11.080;2024-01-15T10:03:57;2.77;;;2.33;;
14330;SDS011;7249;49.376;11.080;2024-01-15T10:06:23;4.87;;;2.67;;
14330;SDS011;7249;49.376;11.080;2024-01-15T10:08:55;5.43;;;3.13;;
14330;SDS011;7249;49.376;11.080;2024-01-15T10:11:23;4.43;;;2.93;;
14330;SDS011;7249;49.376;11.080;2024-01-15T10:13:48;5.50;;;2.60;;
14330;SDS011;7249;49.376;11.080;2024-01-15T10:16:21;6.40;;;3.40;;
14330;SDS011;7249;49.376;11.080;2024-01-15T10:18:47;4.97;;;3.23;;
14330;SDS011;7249;49.376;11.080;2024-01-15T10:21:13;2.97;;;2.07;;
14330;SDS011;7249;49.376;11.080;2024-01-15T10:23:39;6.70;;;3.13;;
14330;SDS011;7249;49.376;11.080;2024-01-15T10:26:05;3.57;;;2.50;;
14330;SDS011;7249;49.376;11.080;2024-01-15T10:28:31;7.53;;;3.03;;
14330;SDS011;7249;49.376;11.080;2024-01-15T10:30:57;3.50;;;2.87;;
14330;SDS011;7249;49.376;11.080;2024-01-15T10:33:26;12.53;;;7.30;;
14330;SDS011;7249;49.376;11.080;2024-01-15T10:35:56;8.70;;;5.37;;
14330;SDS011;7249;49.376;11.080;2024-01-15T10:38:22;7.17;;;3.80;;
14330;SDS011;7249;49.376;11.080;2024-01-15T10:40:53;3.50;;;2.47;;
14330;SDS011;7249;49.376;11.080;2024-01-15T10:43:20;9.67;;;3.10;;
14330;SDS011;7249;49.376;11.080;2024-01-15T10:45:47;4.33;;;3.20;;
14330;SDS011;7249;49.376;11.080;2024-01-15T10:48:13;4.53;;;3.10;;
14330;SDS011;7249;49.376;11.080;2024-01-15T10:50:41;3.90;;;2.77;;
14330;SDS011;7249;49.376;11.080;2024-01-15T10:53:06;5.47;;;2.73;;
14330;SDS011;7249;49.376;11.080;2024-01-15T10:55:35;6.50;;;3.53;;
14330;SDS011;7249;49.376;11.080;2024-01-15T10:58:02;6.83;;;3.10;;
14330;SDS011;7249;49.376;11.080;2024-01-15T11:00:28;4.33;;;2.70;;
14330;SDS011;7249;49.376;11.080;2024-01-15T11:02:55;4.73;;;2.80;;
14330;SDS011;7249;49.376;11.080;2024-01-15T11:05:21;7.00;;;2.87;;
14330;SDS011;7249;49.376;11.080;2024-01-15T11:07:50;6.03;;;3.30;;
14330;SDS011;7249;49.376;11.080;2024-01-15T11:13:08;5.60;;;3.13;;
14330;SDS011;7249;49.376;11.080;2024-01-15T11:15:54;4.20;;;2.93;;
14330;SDS011;7249;49.376;11.080;2024-01-15T11:18:26;4.57;;;3.17;;
14330;SDS011;7249;49.376;11.080;2024-01-15T11:23:42;8.00;;;3.50;;
14330;SDS011;7249;49.376;11.080;2024-01-15T11:26:34;6.60;;;2.70;;
14330;SDS011;7249;49.376;11.080;2024-01-15T11:34:20;6.07;;;3.00;;
14330;SDS011;7249;49.376;11.080;2024-01-15T11:39:48;7.80;;;2.83;;
14330;SDS011;7249;49.376;11.080;2024-01-15T11:42:09;5.97;;;3.23;;
14330;SDS011;7249;49.376;11.080;2024-01-15T11:44:35;4.43;;;2.47;;
14330;SDS011;7249;49.376;11.080;2024-01-15T11:47:09;6.17;;;2.80;;
14330;SDS011;7249;49.376;11.080;2024-01-15T11:52:31;7.17;;;2.90;;
14330;SDS011;7249;49.376;11.080;2024-01-15T11:58:12;5.63;;;2.27;;
14330;SDS011;7249;49.376;11.080;2024-01-15T12:00:19;6.43;;;3.10;;
14330;SDS011;7249;49.376;11.080;2024-01-15T12:02:48;5.87;;;3.00;;
14330;SDS011;7249;49.376;11.080;2024-01-15T12:05:16;4.57;;;2.13;;
14330;SDS011;7249;49.376;11.080;2024-01-15T12:07:43;6.37;;;2.93;;
14330;SDS011;7249;49.376;11.080;2024-01-15T12:10:11;5.20;;;3.23;;
14330;SDS011;7249;49.376;11.080;2024-01-15T12:15:17;6.87;;;3.10;;
14330;SDS011;7249;49.376;11.080;2024-01-15T12:17:43;4.70;;;2.97;;
14330;SDS011;7249;49.376;11.080;2024-01-15T12:20:11;7.77;;;2.90;;
14330;SDS011;7249;49.376;11.080;2024-01-15T12:22:37;4.40;;;2.60;;
14330;SDS011;7249;49.376;11.080;2024-01-15T12:25:03;5.80;;;3.40;;
14330;SDS011;7249;49.376;11.080;2024-01-15T12:27:29;3.03;;;2.33;;
14330;SDS011;7249;49.376;11.080;2024-01-15T12:29:55;6.23;;;2.90;;
14330;SDS011;7249;49.376;11.080;2024-01-15T12:32:20;6.63;;;2.90;;
14330;SDS011;7249;49.376;11.080;2024-01-15T12:34:49;3.37;;;2.53;;
14330;SDS011;7249;49.376;11.080;2024-01-15T12:37:15;4.83;;;2.47;;
14330;SDS011;7249;49.376;11.080;2024-01-15T12:39:43;4.23;;;2.90;;
14330;SDS011;7249;49.376;11.080;2024-01-15T12:42:09;3.67;;;2.13;;
14330;SDS011;7249;49.376;11.080;2024-01-15T12:44:35;3.63;;;2.67;;
14330;SDS011;7249;49.376;11.080;2024-01-15T12:47:03;4.53;;;3.03;;
14330;SDS011;7249;49.376;11.080;2024-01-15T12:49:29;3.00;;;2.43;;
14330;SDS011;7249;49.376;11.080;2024-01-15T12:51:58;4.37;;;2.60;;
14330;SDS011;7249;49.376;11.080;2024-01-15T12:54:24;4.20;;;2.30;;
14330;SDS011;7249;49.376;11.080;2024-01-15T12:56:51;4.70;;;2.60;;
14330;SDS011;7249;49.376;11.080;2024-01-15T12:59:17;3.07;;;1.93;;
14330;SDS011;7249;49.376;11.080;2024-01-15T13:01:43;6.03;;;3.53;;
14330;SDS011;7249;49.376;11.080;2024-01-15T13:04:09;6.90;;;2.70;;
14330;SDS011;7249;49.376;11.080;2024-01-15T13:06:35;6.30;;;2.83;;
14330;SDS011;7249;49.376;11.080;2024-01-15T13:09:02;10.07;;;5.17;;
14330;SDS011;7249;49.376;11.080;2024-01-15T13:11:30;7.37;;;2.77;;
14330;SDS011;7249;49.376;11.080;2024-01-15T13:13:57;3.30;;;2.50;;
14330;SDS011;7249;49.376;11.080;2024-01-15T13:16:22;5.00;;;2.67;;
14330;SDS011;7249;49.376;11.080;2024-01-15T13:18:48;3.33;;;2.20;;
14330;SDS011;7249;49.376;11.080;2024-01-15T13:21:15;3.43;;;3.00;;
14330;SDS011;7249;49.376;11.080;2024-01-15T13:23:40;4.27;;;2.70;;
14330;SDS011;7249;49.376;11.080;2024-01-15T13:26:06;5.03;;;3.30;;
14330;SDS011;7249;49.376;11.080;2024-01-15T13:28:32;3.20;;;2.57;;
14330;SDS011;7249;49.376;11.080;2024-01-15T13:30:59;4.07;;;2.57;;
14330;SDS011;7249;49.376;11.080;2024-01-15T13:33:25;5.40;;;2.53;;
14330;SDS011;7249;49.376;11.080;2024-01-15T13:35:50;5.93;;;2.73;;
14330;SDS011;7249;49.376;11.080;2024-01-15T13:38:16;4.63;;;2.53;;
14330;SDS011;7249;49.376;11.080;2024-01-15T13:40:42;4.93;;;2.97;;
14330;SDS011;7249;49.376;11.080;2024-01-15T13:43:10;4.40;;;2.27;;
14330;SDS011;7249;49.376;11.080;2024-01-15T13:45:36;5.03;;;2.43;;
14330;SDS011;7249;49.376;11.080;2024-01-15T13:48:03;3.43;;;2.37;;
14330;SDS011;7249;49.376;11.080;2024-01-15T13:50:33;2.83;;;2.47;;
14330;SDS011;7249;49.376;11.080;2024-01-15T13:53:02;6.10;;;2.80;;
14330;SDS011;7249;49.376;11.080;2024-01-15T13:55:28;5.13;;;2.87;;
14330;SDS011;7249;49.376;11.080;2024-01-15T13:57:54;4.33;;;2.37;;
14330;SDS011;7249;49.376;11.080;2024-01-15T14:00:20;2.87;;;2.20;;
14330;SDS011;7249;49.376;11.080;2024-01-15T14:02:46;5.50;;;3.17;;
14330;SDS011;7249;49.376;11.080;2024-01-15T14:05:12;7.97;;;3.37;;
14330;SDS011;7249;49.376;11.080;2024-01-15T14:07:38;4.37;;;2.80;;
14330;SDS011;7249;49.376;11.080;2024-01-15T14:10:05;3.40;;;2.50;;
14330;SDS011;7249;49.376;11.080;2024-01-15T14:12:33;3.10;;;2.63;;
14330;SDS011;7249;49.376;11.080;2024-01-15T14:14:59;5.57;;;2.50;;
14330;SDS011;7249;49.376;11.080;2024-01-15T14:17:25;3.57;;;2.63;;
14330;SDS011;7249;49.376;11.080;2024-01-15T14:19:51;4.00;;;2.40;;
14330;SDS011;7249;49.376;11.080;2024-01-15T14:22:17;4.40;;;2.33;;
14330;SDS011;7249;49.376;11.080;2024-01-15T14:24:42;5.10;;;2.63;;
14330;SDS011;7249;49.376;11.080;2024-01-15T14:27:08;6.13;;;3.13;;
14330;SDS011;7249;49.376;11.080;2024-01-15T14:29:34;3.43;;;2.57;;
14330;SDS011;7249;49.376;11.080;2024-01-15T14:32:00;3.53;;;2.43;;
14330;SDS011;7249;49.376;11.080;2024-01-15T14:34:26;3.93;;;2.70;;
14330;SDS011;7249;49.376;11.080;2024-01-15T14:36:52;9.73;;;3.50;;
14330;SDS011;7249;49.376;11.080;2024-01-15T14:39:21;5.43;;;2.93;;
14330;SDS011;7249;49.376;11.080;2024-01-15T14:41:47;3.00;;;2.20;;
14330;SDS011;7249;49.376;11.080;2024-01-15T14:44:13;3.13;;;2.43;;
14330;SDS011;7249;49.376;11.080;2024-01-15T14:46:39;5.13;;;2.80;;
14330;SDS011;7249;49.376;11.080;2024-01-15T14:49:05;5.57;;;2.57;;
14330;SDS011;7249;49.376;11.080;2024-01-15T14:51:30;4.17;;;2.10;;
14330;SDS011;7249;49.376;11.080;2024-01-15T14:53:56;4.33;;;3.00;;
14330;SDS011;7249;49.376;11.080;2024-01-15T14:56:22;3.67;;;2.20;;
14330;SDS011;7249;49.376;11.080;2024-01-15T14:58:48;4.27;;;2.90;;